Terminal Aerodrome Forecast
Issued by NWS Atlanta, GA

Home | Current Version | Previous Version | Text Only | Print | Product List | Glossary On
Versions: 1 2 3 4 5 6 7 8 9 10 11 12 13 14 15
000
FTUS42 KFFC 302328
TAFMCN
TAF
KMCN 302328Z 3100/3124 VRB05KT P6SM VCSH FEW060 SCT100
     FM310200 24003KT P6SM SCT250
     FM310900 00000KT 5SM BR SCT035
     FM311200 24003KT P6SM BKN035 PROB30 3118/3124 SHRA OVC025=

USA.gov is the U.S. government's official web portal to all federal, state and local government web resources and services.